Time;durP1;ratioP1;P1;durP2;ratioP2;P2;SDS_P1;SDS_P2;PMS_P1;PMS_P2;Temp;Humidity;BMP_temperature;BMP_pressure;BME280_temperature;BME280_humidity;BME280_pressure;Samples;Min_cycle;Max_cycle;Signal;HPM_P1;HPM_P2
2023/12/05 00:00:35;;;;;;;30.33;27.70;;;;;;;;;;5050178;28;20463;-39
2023/12/05 00:03:03;;;;;;;30.93;28.60;;;;;;;;;;5049885;28;20911;-39
2023/12/05 00:05:32;;;;;;;30.10;27.70;;;;;;;;;;5050278;28;20456;-39
2023/12/05 00:08:00;;;;;;;31.70;29.10;;;;;;;;;;5049432;28;21001;-41
2023/12/05 00:10:27;;;;;;;32.37;29.57;;;;;;;;;;5049991;28;20483;-43
2023/12/05 00:12:55;;;;;;;31.47;28.87;;;;;;;;;;5050329;28;20795;-40
2023/12/05 00:15:23;;;;;;;30.77;28.70;;;;;;;;;;5050410;28;20459;-39
2023/12/05 00:17:51;;;;;;;30.73;28.30;;;;;;;;;;5041627;28;20428;-40
2023/12/05 00:20:18;;;;;;;30.40;27.80;;;;;;;;;;5044717;28;20475;-42
2023/12/05 00:22:47;;;;;;;29.87;27.47;;;;;;;;;;5038872;28;20466;-39
2023/12/05 00:25:15;;;;;;;28.33;26.10;;;;;;;;;;5050858;28;20467;-41
2023/12/05 00:27:42;;;;;;;30.23;27.90;;;;;;;;;;5054042;28;20864;-40
2023/12/05 00:30:10;;;;;;;30.83;28.57;;;;;;;;;;5053632;28;20550;-43
2023/12/05 00:32:38;;;;;;;29.03;26.70;;;;;;;;;;5053900;28;20522;-40
2023/12/05 00:35:06;;;;;;;30.47;27.70;;;;;;;;;;5053503;28;20447;-39
2023/12/05 00:37:34;;;;;;;27.67;25.73;;;;;;;;;;5053990;28;20435;-41
2023/12/05 00:40:04;;;;;;;29.37;26.90;;;;;;;;;;5053137;28;20459;-39
2023/12/05 00:42:32;;;;;;;30.40;27.80;;;;;;;;;;5053943;28;20522;-39
2023/12/05 00:44:59;;;;;;;29.83;27.40;;;;;;;;;;5053229;28;20463;-41
2023/12/05 00:47:27;;;;;;;28.03;25.97;;;;;;;;;;5053912;28;20557;-41
2023/12/05 00:49:55;;;;;;;28.50;26.30;;;;;;;;;;5053228;28;20466;-39
2023/12/05 00:52:22;;;;;;;29.43;27.03;;;;;;;;;;5053426;28;20526;-40
2023/12/05 00:54:50;;;;;;;29.67;27.23;;;;;;;;;;5053516;28;20534;-40
2023/12/05 00:57:19;;;;;;;27.90;25.63;;;;;;;;;;5053749;28;20518;-41
2023/12/05 00:59:46;;;;;;;30.10;27.87;;;;;;;;;;5052858;28;20477;-41
2023/12/05 01:02:14;;;;;;;29.73;27.20;;;;;;;;;;5053215;28;20941;-40
2023/12/05 01:04:41;;;;;;;28.73;26.63;;;;;;;;;;5053462;28;20442;-42
2023/12/05 01:07:12;;;;;;;28.10;26.20;;;;;;;;;;5053474;28;20431;-40
2023/12/05 01:09:40;;;;;;;29.40;27.23;;;;;;;;;;5052848;28;20436;-44
2023/12/05 01:12:08;;;;;;;28.00;26.00;;;;;;;;;;5053483;28;20427;-41
2023/12/05 01:14:37;;;;;;;31.10;28.73;;;;;;;;;;5052816;28;20435;-43
2023/12/05 01:17:05;;;;;;;29.47;26.77;;;;;;;;;;5050388;28;20938;-41
2023/12/05 01:19:34;;;;;;;29.77;27.40;;;;;;;;;;5047498;28;20463;-41
2023/12/05 01:22:03;;;;;;;29.57;27.40;;;;;;;;;;5044032;28;20437;-41
2023/12/05 01:24:31;;;;;;;31.70;29.10;;;;;;;;;;5052296;28;21114;-43
2023/12/05 01:26:58;;;;;;;29.10;26.87;;;;;;;;;;5052617;28;20446;-39
2023/12/05 01:29:26;;;;;;;28.30;26.40;;;;;;;;;;5052103;28;20889;-39
2023/12/05 01:31:55;;;;;;;28.90;26.70;;;;;;;;;;5052679;28;20427;-39
2023/12/05 01:34:23;;;;;;;26.97;25.07;;;;;;;;;;5052467;28;20439;-42
2023/12/05 01:36:51;;;;;;;28.17;26.20;;;;;;;;;;5051979;28;20819;-40
2023/12/05 01:39:18;;;;;;;28.40;26.30;;;;;;;;;;5052715;28;20463;-40
2023/12/05 01:41:45;;;;;;;27.87;25.73;;;;;;;;;;5052343;28;21209;-41
2023/12/05 01:44:13;;;;;;;31.97;29.10;;;;;;;;;;5052363;28;20954;-41
2023/12/05 01:46:40;;;;;;;28.97;26.60;;;;;;;;;;5092263;22;20479;-41
2023/12/05 01:49:09;;;;;;;28.43;26.13;;;;;;;;;;5060395;28;20475;-40
2023/12/05 01:51:45;;;;;;;26.87;24.83;;;;;;;;;;5051709;28;20486;-40
2023/12/05 01:54:14;;;;;;;28.43;26.17;;;;;;;;;;5060708;28;20835;-41
2023/12/05 01:56:42;;;;;;;27.93;25.73;;;;;;;;;;5067929;28;20959;-40
2023/12/05 01:59:10;;;;;;;31.10;28.60;;;;;;;;;;5063938;28;20434;-41
2023/12/05 02:01:37;;;;;;;29.47;27.13;;;;;;;;;;5065362;28;20455;-40
2023/12/05 02:04:05;;;;;;;30.70;28.20;;;;;;;;;;5060833;28;20526;-41
2023/12/05 02:06:35;;;;;;;29.63;27.40;;;;;;;;;;5066982;28;20454;-41
2023/12/05 02:09:03;;;;;;;30.50;28.03;;;;;;;;;;5053805;28;20474;-41
2023/12/05 02:11:32;;;;;;;29.23;27.10;;;;;;;;;;5057608;28;20458;-43
2023/12/05 02:14:00;;;;;;;30.10;27.70;;;;;;;;;;5063393;28;20435;-41
2023/12/05 02:16:31;;;;;;;31.57;28.93;;;;;;;;;;5071644;28;20469;-41
2023/12/05 02:19:01;;;;;;;30.47;28.10;;;;;;;;;;5063100;28;20794;-42
2023/12/05 02:21:31;;;;;;;29.60;27.30;;;;;;;;;;5061448;28;20487;-42
2023/12/05 02:24:14;;;;;;;30.23;27.90;;;;;;;;;;5052831;28;20431;-41
2023/12/05 02:26:47;;;;;;;30.80;28.50;;;;;;;;;;5054401;28;20458;-40
2023/12/05 02:29:16;;;;;;;30.47;28.07;;;;;;;;;;5060066;28;20489;-40
2023/12/05 02:31:44;;;;;;;30.10;27.60;;;;;;;;;;5051159;28;20483;-40
2023/12/05 02:34:11;;;;;;;31.60;29.00;;;;;;;;;;5059681;28;20462;-44
2023/12/05 02:36:44;;;;;;;28.83;26.40;;;;;;;;;;5059480;28;20520;-41
2023/12/05 02:39:13;;;;;;;29.83;27.70;;;;;;;;;;5060029;28;20850;-41
2023/12/05 02:41:42;;;;;;;29.53;27.40;;;;;;;;;;5057371;28;20459;-39
2023/12/05 02:44:12;;;;;;;32.57;29.40;;;;;;;;;;5052696;28;20435;-40
2023/12/05 02:46:41;;;;;;;29.47;27.27;;;;;;;;;;5066007;28;20817;-40
2023/12/05 02:49:10;;;;;;;30.50;27.80;;;;;;;;;;5070403;28;20485;-43
2023/12/05 02:51:38;;;;;;;30.67;28.27;;;;;;;;;;5056557;28;20520;-39
2023/12/05 02:54:06;;;;;;;30.20;27.90;;;;;;;;;;5059874;28;20848;-42
2023/12/05 02:56:35;;;;;;;31.23;28.93;;;;;;;;;;5059146;28;20897;-39
2023/12/05 02:59:02;;;;;;;30.47;27.97;;;;;;;;;;5051185;28;20509;-42
2023/12/05 03:01:30;;;;;;;30.90;28.60;;;;;;;;;;5059168;28;20459;-45
2023/12/05 03:03:59;;;;;;;33.20;30.40;;;;;;;;;;5050802;28;20450;-41
2023/12/05 03:06:28;;;;;;;32.10;29.70;;;;;;;;;;5055319;28;20429;-41
2023/12/05 03:08:56;;;;;;;30.37;28.13;;;;;;;;;;5071331;28;20484;-41
2023/12/05 03:11:27;;;;;;;33.13;30.20;;;;;;;;;;5058941;28;20490;-43
2023/12/05 03:13:55;;;;;;;31.93;29.70;;;;;;;;;;5051129;28;20438;-42
2023/12/05 03:16:23;;;;;;;31.47;28.97;;;;;;;;;;5046862;28;20525;-41
2023/12/05 03:18:50;;;;;;;31.70;29.00;;;;;;;;;;5062501;28;20429;-42
2023/12/05 03:21:20;;;;;;;32.10;29.20;;;;;;;;;;5057358;28;20554;-42
2023/12/05 03:23:48;;;;;;;31.97;29.40;;;;;;;;;;5059193;28;20438;-42
2023/12/05 03:26:19;;;;;;;31.70;29.27;;;;;;;;;;5050776;28;20457;-42
2023/12/05 03:28:46;;;;;;;33.77;30.87;;;;;;;;;;5050592;28;20527;-43
2023/12/05 03:31:14;;;;;;;31.50;29.00;;;;;;;;;;5058647;28;20458;-42
2023/12/05 03:33:42;;;;;;;31.80;29.07;;;;;;;;;;5058933;28;20498;-42
2023/12/05 03:36:10;;;;;;;32.37;29.67;;;;;;;;;;5050467;28;20420;-42
2023/12/05 03:38:39;;;;;;;32.63;29.90;;;;;;;;;;5059414;28;20894;-42
2023/12/05 03:41:07;;;;;;;30.23;27.63;;;;;;;;;;5051508;28;20463;-42
2023/12/05 03:43:35;;;;;;;31.23;28.53;;;;;;;;;;5062724;28;20438;-42
2023/12/05 03:46:02;;;;;;;29.83;27.27;;;;;;;;;;5053665;28;20862;-42
2023/12/05 03:48:30;;;;;;;30.33;27.83;;;;;;;;;;5050355;28;20538;-41
2023/12/05 03:50:58;;;;;;;31.57;29.00;;;;;;;;;;5049771;28;20566;-41
2023/12/05 03:53:26;;;;;;;30.67;28.27;;;;;;;;;;5050503;28;20470;-42
2023/12/05 03:55:55;;;;;;;31.13;28.60;;;;;;;;;;5058192;28;20432;-41
2023/12/05 03:58:22;;;;;;;29.57;27.43;;;;;;;;;;5053726;28;20490;-42
2023/12/05 04:00:50;;;;;;;31.83;29.23;;;;;;;;;;5065936;28;20461;-41
2023/12/05 04:03:18;;;;;;;31.77;29.37;;;;;;;;;;5075650;28;20530;-41
2023/12/05 04:05:46;;;;;;;29.73;27.53;;;;;;;;;;5070445;28;20435;-40
2023/12/05 04:08:13;;;;;;;30.43;27.83;;;;;;;;;;5067270;28;20509;-41
2023/12/05 04:10:41;;;;;;;31.63;28.93;;;;;;;;;;5068325;28;20463;-40
2023/12/05 04:13:10;;;;;;;32.40;29.60;;;;;;;;;;5062732;28;20434;-42
2023/12/05 04:15:37;;;;;;;29.13;26.70;;;;;;;;;;5059522;28;20431;-42
2023/12/05 04:18:05;;;;;;;32.63;29.50;;;;;;;;;;5056683;28;20447;-42
2023/12/05 04:20:33;;;;;;;33.50;30.50;;;;;;;;;;5053837;28;20989;-43
2023/12/05 04:23:00;;;;;;;34.27;31.07;;;;;;;;;;5062360;28;20450;-43
2023/12/05 04:25:28;;;;;;;32.80;29.80;;;;;;;;;;5058551;28;20488;-41
2023/12/05 04:27:55;;;;;;;33.30;30.50;;;;;;;;;;5066543;28;20520;-42
2023/12/05 04:30:24;;;;;;;32.67;29.97;;;;;;;;;;5061909;28;20463;-42
2023/12/05 04:32:52;;;;;;;33.63;30.83;;;;;;;;;;5053796;28;20980;-41
2023/12/05 04:35:20;;;;;;;36.83;33.03;;;;;;;;;;5062449;28;20844;-43
2023/12/05 04:37:47;;;;;;;34.77;31.47;;;;;;;;;;5054200;28;20473;-41
2023/12/05 04:40:15;;;;;;;35.60;32.20;;;;;;;;;;5053534;28;20458;-42
2023/12/05 04:42:43;;;;;;;34.63;31.63;;;;;;;;;;5064907;28;20430;-43
2023/12/05 04:45:10;;;;;;;33.87;31.07;;;;;;;;;;5055312;28;20992;-41
2023/12/05 04:47:39;;;;;;;36.40;33.17;;;;;;;;;;5052926;28;20458;-43
2023/12/05 04:50:07;;;;;;;36.57;33.47;;;;;;;;;;5070206;28;20497;-42
2023/12/05 04:52:35;;;;;;;35.30;32.03;;;;;;;;;;5073811;28;20430;-42
2023/12/05 04:55:02;;;;;;;34.90;31.60;;;;;;;;;;5057092;28;20442;-43
2023/12/05 04:57:30;;;;;;;37.43;33.73;;;;;;;;;;5065960;28;20533;-42
2023/12/05 04:59:58;;;;;;;37.23;34.07;;;;;;;;;;5073352;28;20806;-42
2023/12/05 05:02:26;;;;;;;35.67;32.07;;;;;;;;;;5056931;28;20826;-43
2023/12/05 05:04:55;;;;;;;37.33;33.73;;;;;;;;;;5066285;28;20464;-43
2023/12/05 05:07:22;;;;;;;35.60;32.13;;;;;;;;;;5053158;28;20456;-43
2023/12/05 05:09:51;;;;;;;36.60;33.20;;;;;;;;;;5058841;28;20454;-41
2023/12/05 05:12:19;;;;;;;37.27;33.67;;;;;;;;;;5064269;28;20522;-43
2023/12/05 05:14:47;;;;;;;39.93;35.87;;;;;;;;;;5067005;28;20451;-42
2023/12/05 05:17:14;;;;;;;38.40;34.90;;;;;;;;;;5054497;28;20455;-41
2023/12/05 05:19:42;;;;;;;39.63;35.47;;;;;;;;;;5067456;28;20976;-39
2023/12/05 05:22:11;;;;;;;39.57;35.80;;;;;;;;;;5061437;28;20431;-42
2023/12/05 05:24:38;;;;;;;40.63;36.50;;;;;;;;;;5052590;28;20530;-41
2023/12/05 05:27:06;;;;;;;39.27;35.27;;;;;;;;;;5070025;28;20446;-41
2023/12/05 05:29:33;;;;;;;38.80;35.20;;;;;;;;;;5060200;28;20431;-41
2023/12/05 05:32:01;;;;;;;38.03;34.40;;;;;;;;;;5053210;28;20455;-42
2023/12/05 05:34:28;;;;;;;41.77;36.87;;;;;;;;;;5064363;28;20933;-42
2023/12/05 05:36:56;;;;;;;43.30;38.70;;;;;;;;;;5064950;28;20655;-43
2023/12/05 05:39:25;;;;;;;40.20;36.30;;;;;;;;;;5064330;28;20523;-42
2023/12/05 05:41:53;;;;;;;37.57;34.30;;;;;;;;;;5058994;28;20453;-44
2023/12/05 05:44:20;;;;;;;37.83;34.43;;;;;;;;;;5071356;28;20449;-42
2023/12/05 05:46:48;;;;;;;39.07;35.30;;;;;;;;;;5067227;28;20517;-42
2023/12/05 05:49:16;;;;;;;38.67;35.07;;;;;;;;;;5053314;28;21142;-43
2023/12/05 05:51:43;;;;;;;40.20;36.30;;;;;;;;;;5061127;28;20550;-42
2023/12/05 05:54:11;;;;;;;44.43;39.60;;;;;;;;;;5062740;28;20439;-42
2023/12/05 05:56:40;;;;;;;39.27;35.33;;;;;;;;;;5073649;28;20450;-43
2023/12/05 05:59:08;;;;;;;41.60;37.20;;;;;;;;;;5055912;28;21126;-42
2023/12/05 06:01:35;;;;;;;40.60;36.40;;;;;;;;;;5059573;28;20451;-43
2023/12/05 06:04:04;;;;;;;42.30;37.33;;;;;;;;;;5051850;28;20470;-43
2023/12/05 06:06:32;;;;;;;41.23;37.00;;;;;;;;;;5044070;28;20436;-42
2023/12/05 06:08:59;;;;;;;41.60;37.17;;;;;;;;;;5052405;28;20427;-42
2023/12/05 06:11:27;;;;;;;39.37;35.30;;;;;;;;;;5071406;28;20477;-41
2023/12/05 06:13:56;;;;;;;41.70;37.20;;;;;;;;;;5065608;28;20493;-41
2023/12/05 06:16:23;;;;;;;43.23;39.23;;;;;;;;;;5054330;28;20463;-41
2023/12/05 06:18:51;;;;;;;40.80;36.40;;;;;;;;;;5057122;28;20427;-42
2023/12/05 06:21:19;;;;;;;42.33;38.00;;;;;;;;;;5058748;28;20459;-42
2023/12/05 06:23:46;;;;;;;44.00;39.07;;;;;;;;;;5063648;28;20427;-41
2023/12/05 06:26:14;;;;;;;45.03;37.40;;;;;;;;;;5070352;28;20438;-42
2023/12/05 06:28:42;;;;;;;40.13;35.93;;;;;;;;;;5052215;28;20459;-43
2023/12/05 06:31:11;;;;;;;43.00;38.70;;;;;;;;;;5059143;28;20466;-41
2023/12/05 06:33:39;;;;;;;42.20;36.23;;;;;;;;;;5064360;28;20434;-42
2023/12/05 06:36:07;;;;;;;43.83;39.23;;;;;;;;;;5071589;28;20445;-43
2023/12/05 06:38:34;;;;;;;42.30;37.60;;;;;;;;;;5063480;28;20815;-42
2023/12/05 06:41:02;;;;;;;39.50;35.53;;;;;;;;;;5063478;28;20537;-43
2023/12/05 06:43:29;;;;;;;40.83;36.50;;;;;;;;;;5068026;28;21000;-41
2023/12/05 06:45:57;;;;;;;43.47;38.13;;;;;;;;;;5058064;28;20517;-42
2023/12/05 06:48:26;;;;;;;41.03;36.73;;;;;;;;;;5063005;28;20459;-41
2023/12/05 06:50:54;;;;;;;44.77;38.47;;;;;;;;;;5064525;28;21025;-41
2023/12/05 06:53:21;;;;;;;42.17;38.07;;;;;;;;;;5050972;28;20431;-42
2023/12/05 06:55:49;;;;;;;46.77;41.23;;;;;;;;;;5057257;28;20430;-42
2023/12/05 06:58:18;;;;;;;46.57;41.63;;;;;;;;;;5061480;28;20455;-41
2023/12/05 07:00:45;;;;;;;44.17;39.07;;;;;;;;;;5064235;28;20511;-41
2023/12/05 07:03:13;;;;;;;43.77;39.07;;;;;;;;;;5062181;28;20543;-42
2023/12/05 07:05:42;;;;;;;43.93;39.73;;;;;;;;;;5051174;28;20431;-41
2023/12/05 07:08:10;;;;;;;41.33;37.17;;;;;;;;;;5050896;28;20451;-42
2023/12/05 07:10:37;;;;;;;42.87;37.83;;;;;;;;;;5054467;28;20872;-41
2023/12/05 07:13:05;;;;;;;42.67;38.20;;;;;;;;;;5063430;28;20435;-42
2023/12/05 07:15:33;;;;;;;45.53;39.10;;;;;;;;;;5052048;28;20462;-41
2023/12/05 07:18:00;;;;;;;43.20;38.63;;;;;;;;;;5059630;28;20457;-43
2023/12/05 07:20:28;;;;;;;46.10;41.27;;;;;;;;;;5053215;28;20463;-41
2023/12/05 07:22:57;;;;;;;45.60;40.70;;;;;;;;;;5056357;28;20940;-41
2023/12/05 07:25:25;;;;;;;45.93;41.03;;;;;;;;;;5061110;28;20855;-42
2023/12/05 07:27:52;;;;;;;46.80;42.00;;;;;;;;;;5065133;28;20471;-41
2023/12/05 07:30:20;;;;;;;45.33;40.87;;;;;;;;;;5060148;28;20463;-42
2023/12/05 07:32:48;;;;;;;47.60;41.00;;;;;;;;;;5065471;28;20467;-42
2023/12/05 07:35:16;;;;;;;47.53;41.43;;;;;;;;;;5058623;28;20453;-41
2023/12/05 07:37:44;;;;;;;45.07;40.17;;;;;;;;;;5055033;28;20515;-42
2023/12/05 07:40:13;;;;;;;44.57;40.00;;;;;;;;;;5070565;28;20504;-40
2023/12/05 07:42:40;;;;;;;46.33;41.40;;;;;;;;;;5055773;28;20933;-41
2023/12/05 07:45:09;;;;;;;45.57;40.80;;;;;;;;;;5054490;28;20467;-41
2023/12/05 07:47:36;;;;;;;46.20;41.60;;;;;;;;;;5070136;28;20485;-41
2023/12/05 07:50:04;;;;;;;44.87;39.83;;;;;;;;;;5070324;28;20469;-43
2023/12/05 07:52:30;;;;;;;43.80;39.37;;;;;;;;;;5081121;22;20487;-38
2023/12/05 07:54:58;;;;;;;47.23;42.03;;;;;;;;;;5045437;28;20474;-38
2023/12/05 07:57:27;;;;;;;45.43;40.57;;;;;;;;;;5050794;28;20557;-38
2023/12/05 07:59:55;;;;;;;43.00;38.40;;;;;;;;;;5050445;28;20882;-38
2023/12/05 08:02:22;;;;;;;45.87;40.70;;;;;;;;;;5050919;28;20461;-40
2023/12/05 08:04:50;;;;;;;42.53;38.03;;;;;;;;;;5050737;28;20443;-37
2023/12/05 08:07:18;;;;;;;47.43;42.43;;;;;;;;;;5042806;28;20464;-38
2023/12/05 08:09:45;;;;;;;46.57;41.50;;;;;;;;;;5050771;28;20532;-38
2023/12/05 08:12:13;;;;;;;46.83;41.90;;;;;;;;;;5042663;28;20485;-36
2023/12/05 08:14:42;;;;;;;44.33;39.83;;;;;;;;;;5050768;28;20524;-38
2023/12/05 08:17:09;;;;;;;44.43;39.80;;;;;;;;;;5050969;28;20473;-40
2023/12/05 08:19:37;;;;;;;44.67;40.27;;;;;;;;;;5050199;28;20493;-37
2023/12/05 08:22:04;;;;;;;43.33;38.73;;;;;;;;;;5050966;28;20462;-38
2023/12/05 08:24:32;;;;;;;42.60;38.17;;;;;;;;;;5050574;28;20445;-37
2023/12/05 08:27:00;;;;;;;44.77;39.80;;;;;;;;;;5051043;28;20439;-38
2023/12/05 08:29:27;;;;;;;45.83;40.50;;;;;;;;;;5050074;28;20859;-37
2023/12/05 08:31:56;;;;;;;45.47;40.67;;;;;;;;;;5050565;28;20609;-37
2023/12/05 08:34:24;;;;;;;46.10;41.30;;;;;;;;;;5050431;28;20435;-38
2023/12/05 08:36:51;;;;;;;43.63;39.33;;;;;;;;;;5050624;28;20497;-39
2023/12/05 08:39:19;;;;;;;46.50;41.67;;;;;;;;;;5050698;28;20442;-39
2023/12/05 08:41:46;;;;;;;47.57;42.00;;;;;;;;;;5050211;28;20981;-43
2023/12/05 08:44:14;;;;;;;47.07;40.83;;;;;;;;;;5050751;28;20517;-38
2023/12/05 08:46:42;;;;;;;46.67;41.07;;;;;;;;;;5042846;28;20812;-38
2023/12/05 08:49:10;;;;;;;47.27;42.67;;;;;;;;;;5054548;28;20863;-39
2023/12/05 08:51:38;;;;;;;45.00;40.20;;;;;;;;;;5053248;28;20834;-38
2023/12/05 08:54:06;;;;;;;46.00;41.30;;;;;;;;;;5054185;28;20442;-38
2023/12/05 08:56:33;;;;;;;49.17;44.33;;;;;;;;;;5043275;28;20444;-39
2023/12/05 08:59:01;;;;;;;48.70;43.50;;;;;;;;;;5048506;28;20493;-38
2023/12/05 09:01:28;;;;;;;48.80;43.93;;;;;;;;;;5052899;28;20490;-38
2023/12/05 09:03:56;;;;;;;50.43;45.00;;;;;;;;;;5054014;28;20435;-38
2023/12/05 09:06:25;;;;;;;55.10;45.97;;;;;;;;;;5053847;28;20802;-38
2023/12/05 09:08:54;;;;;;;50.97;45.70;;;;;;;;;;5053887;28;20446;-38
2023/12/05 09:11:21;;;;;;;48.30;43.03;;;;;;;;;;5053058;28;20470;-38
2023/12/05 09:13:49;;;;;;;55.97;45.97;;;;;;;;;;5045154;28;20475;-37
2023/12/05 09:16:16;;;;;;;50.90;45.40;;;;;;;;;;5053932;28;20534;-38
2023/12/05 09:18:44;;;;;;;47.37;42.37;;;;;;;;;;5053844;28;20514;-40
2023/12/05 09:21:12;;;;;;;52.93;44.67;;;;;;;;;;5053174;28;20625;-38
2023/12/05 09:23:41;;;;;;;48.03;43.10;;;;;;;;;;5053189;28;20447;-39
2023/12/05 09:26:09;;;;;;;50.23;44.80;;;;;;;;;;5053571;28;20523;-38
2023/12/05 09:28:36;;;;;;;50.53;45.13;;;;;;;;;;5053421;28;20439;-38
2023/12/05 09:31:04;;;;;;;49.73;44.30;;;;;;;;;;5052882;28;20491;-37
2023/12/05 09:33:32;;;;;;;52.37;46.77;;;;;;;;;;5052940;28;20851;-38
2023/12/05 09:35:59;;;;;;;59.43;46.40;;;;;;;;;;5053103;28;20442;-38
2023/12/05 09:38:27;;;;;;;51.70;46.10;;;;;;;;;;5053535;28;20867;-38
2023/12/05 09:40:57;;;;;;;52.80;44.77;;;;;;;;;;5052861;28;20541;-38
2023/12/05 09:43:26;;;;;;;56.57;46.87;;;;;;;;;;5053365;28;20451;-37
2023/12/05 09:45:59;;;;;;;52.37;46.63;;;;;;;;;;5053474;28;20875;-37
2023/12/05 09:48:28;;;;;;;59.70;47.17;;;;;;;;;;5045276;28;20519;-37
2023/12/05 09:50:56;;;;;;;58.13;47.30;;;;;;;;;;5047958;28;20464;-37
2023/12/05 09:53:24;;;;;;;56.43;48.50;;;;;;;;;;5041218;28;20476;-38
2023/12/05 09:55:52;;;;;;;55.83;46.83;;;;;;;;;;5033467;28;20432;-38
2023/12/05 09:58:22;;;;;;;55.03;49.03;;;;;;;;;;5032841;28;20527;-37
2023/12/05 10:00:52;;;;;;;54.23;48.43;;;;;;;;;;5041399;28;20460;-38
2023/12/05 10:03:19;;;;;;;54.37;48.63;;;;;;;;;;5033196;28;20535;-40
2023/12/05 10:05:48;;;;;;;51.83;45.97;;;;;;;;;;5033250;28;20495;-38
2023/12/05 10:08:16;;;;;;;53.93;48.13;;;;;;;;;;5033408;28;20432;-40
2023/12/05 10:10:45;;;;;;;53.70;47.83;;;;;;;;;;5032580;28;20468;-39
2023/12/05 10:13:13;;;;;;;52.53;47.03;;;;;;;;;;5032882;28;20487;-38
2023/12/05 10:15:43;;;;;;;56.40;50.13;;;;;;;;;;5032959;28;20439;-41
2023/12/05 10:18:10;;;;;;;53.57;48.03;;;;;;;;;;5032853;28;20942;-38
2023/12/05 10:20:39;;;;;;;54.27;47.87;;;;;;;;;;5039683;28;20490;-38
2023/12/05 10:23:06;;;;;;;52.40;46.77;;;;;;;;;;5038231;28;20462;-39
2023/12/05 10:25:34;;;;;;;54.27;48.50;;;;;;;;;;5032862;28;20511;-38
2023/12/05 10:28:03;;;;;;;53.67;47.87;;;;;;;;;;5032947;28;20440;-42
2023/12/05 10:30:31;;;;;;;54.00;46.47;;;;;;;;;;5032164;28;20830;-38
2023/12/05 10:33:10;;;;;;;53.50;47.87;;;;;;;;;;5032207;28;20478;-39
2023/12/05 10:35:38;;;;;;;54.37;47.50;;;;;;;;;;5032760;28;20436;-38
2023/12/05 10:38:10;;;;;;;52.93;47.27;;;;;;;;;;5032744;28;20498;-38
2023/12/05 10:40:50;;;;;;;56.17;49.33;;;;;;;;;;5042412;28;20462;-38
2023/12/05 10:43:18;;;;;;;51.17;46.37;;;;;;;;;;5051947;28;20451;-38
2023/12/05 10:45:46;;;;;;;55.30;46.43;;;;;;;;;;5032249;28;20526;-38
2023/12/05 10:48:16;;;;;;;54.07;48.33;;;;;;;;;;5032539;28;20807;-42
2023/12/05 10:50:44;;;;;;;49.97;44.93;;;;;;;;;;5031889;28;20499;-37
2023/12/05 10:53:13;;;;;;;53.53;47.73;;;;;;;;;;5031564;28;21064;-37
2023/12/05 10:55:40;;;;;;;52.70;46.90;;;;;;;;;;5032083;28;20459;-37
2023/12/05 10:58:08;;;;;;;51.67;46.00;;;;;;;;;;5032068;28;20436;-38
2023/12/05 11:00:37;;;;;;;52.40;47.17;;;;;;;;;;5031475;28;20843;-37
2023/12/05 11:03:05;;;;;;;54.47;49.00;;;;;;;;;;5031910;28;20462;-38
2023/12/05 11:05:35;;;;;;;52.13;46.80;;;;;;;;;;5032102;28;20467;-38
2023/12/05 11:08:03;;;;;;;55.77;50.10;;;;;;;;;;5032190;28;20432;-37
2023/12/05 11:10:31;;;;;;;51.53;46.40;;;;;;;;;;5030599;28;20491;-39
2023/12/05 11:13:02;;;;;;;50.67;45.67;;;;;;;;;;5032018;28;20525;-38
2023/12/05 11:15:35;;;;;;;50.30;45.60;;;;;;;;;;5031992;28;20562;-38
2023/12/05 11:18:06;;;;;;;52.47;47.07;;;;;;;;;;5031922;28;20517;-38
2023/12/05 11:20:50;;;;;;;53.03;47.63;;;;;;;;;;5046291;28;20498;-38
2023/12/05 11:23:30;;;;;;;50.23;45.63;;;;;;;;;;5036158;28;20546;-38
2023/12/05 11:26:05;;;;;;;50.77;45.57;;;;;;;;;;5032086;28;20498;-37
2023/12/05 11:28:43;;;;;;;53.17;47.80;;;;;;;;;;5041240;28;20474;-37
2023/12/05 11:31:14;;;;;;;49.83;45.00;;;;;;;;;;5044408;28;20467;-39
2023/12/05 11:33:47;;;;;;;47.23;42.47;;;;;;;;;;5041901;28;20966;-38
2023/12/05 11:36:23;;;;;;;50.70;45.60;;;;;;;;;;5036408;28;20436;-38
2023/12/05 11:38:51;;;;;;;51.87;46.67;;;;;;;;;;5031620;28;20436;-38
2023/12/05 11:41:20;;;;;;;50.37;45.33;;;;;;;;;;5031000;28;20488;-38
2023/12/05 11:44:02;;;;;;;49.10;44.17;;;;;;;;;;5030980;28;20562;-40
2023/12/05 11:46:33;;;;;;;49.43;44.07;;;;;;;;;;5030739;28;20939;-37
2023/12/05 11:49:02;;;;;;;51.60;46.60;;;;;;;;;;5031554;28;20520;-37
2023/12/05 11:51:32;;;;;;;47.43;42.93;;;;;;;;;;5030620;28;20568;-37
2023/12/05 11:54:00;;;;;;;50.63;45.40;;;;;;;;;;5031055;28;20491;-37
2023/12/05 11:56:30;;;;;;;46.10;41.93;;;;;;;;;;5031357;28;20439;-38
2023/12/05 11:59:18;;;;;;;46.93;42.43;;;;;;;;;;5031638;28;20868;-41
2023/12/05 12:01:48;;;;;;;45.57;41.37;;;;;;;;;;5030528;28;20887;-38
2023/12/05 12:04:20;;;;;;;48.33;44.00;;;;;;;;;;5031036;28;20432;-38
2023/12/05 12:06:49;;;;;;;46.73;42.00;;;;;;;;;;5030867;28;20440;-38
2023/12/05 12:09:17;;;;;;;47.40;42.83;;;;;;;;;;5031292;28;20443;-39
2023/12/05 12:11:44;;;;;;;46.63;42.30;;;;;;;;;;5046920;28;20549;-39
2023/12/05 12:14:13;;;;;;;47.20;42.50;;;;;;;;;;5030789;28;20542;-38
2023/12/05 12:16:42;;;;;;;48.33;43.73;;;;;;;;;;5030922;28;20838;-40
2023/12/05 12:19:11;;;;;;;48.27;43.17;;;;;;;;;;5039140;28;20444;-40
2023/12/05 12:21:40;;;;;;;48.73;43.97;;;;;;;;;;5047209;28;20455;-37
2023/12/05 12:24:09;;;;;;;47.03;42.10;;;;;;;;;;5046282;28;20439;-37
2023/12/05 12:26:36;;;;;;;50.80;45.47;;;;;;;;;;5036916;28;20499;-37
2023/12/05 12:29:07;;;;;;;47.33;42.53;;;;;;;;;;5034749;28;20448;-37
2023/12/05 12:31:35;;;;;;;47.70;42.97;;;;;;;;;;5033073;28;20452;-38
2023/12/05 12:34:05;;;;;;;47.00;42.63;;;;;;;;;;5034276;28;20467;-41
2023/12/05 12:36:36;;;;;;;47.97;43.07;;;;;;;;;;5034572;28;20436;-38
2023/12/05 12:39:05;;;;;;;45.63;41.23;;;;;;;;;;5034597;28;20437;-40
2023/12/05 12:41:34;;;;;;;44.33;40.13;;;;;;;;;;5034336;28;20878;-38
2023/12/05 12:44:05;;;;;;;47.33;42.60;;;;;;;;;;5041347;28;20443;-38
2023/12/05 12:46:32;;;;;;;48.80;44.10;;;;;;;;;;5034167;28;21014;-38
2023/12/05 12:49:02;;;;;;;49.20;44.50;;;;;;;;;;5042611;28;20450;-37
2023/12/05 12:51:31;;;;;;;49.63;44.53;;;;;;;;;;5041393;28;20466;-37
2023/12/05 12:53:59;;;;;;;49.23;44.10;;;;;;;;;;5033831;28;21001;-37
2023/12/05 12:56:29;;;;;;;46.43;42.00;;;;;;;;;;5033988;28;20810;-37
2023/12/05 12:59:00;;;;;;;45.00;40.47;;;;;;;;;;5034042;28;20515;-37
2023/12/05 13:01:28;;;;;;;46.07;41.60;;;;;;;;;;5033434;28;20464;-37
2023/12/05 13:03:56;;;;;;;48.07;43.33;;;;;;;;;;5034005;28;20510;-36
2023/12/05 13:06:24;;;;;;;46.23;41.40;;;;;;;;;;5033897;28;20467;-37
2023/12/05 13:08:52;;;;;;;46.63;42.33;;;;;;;;;;5033928;28;20428;-37
2023/12/05 13:11:19;;;;;;;45.97;41.17;;;;;;;;;;5033197;28;20465;-37
2023/12/05 13:13:47;;;;;;;46.10;41.60;;;;;;;;;;5035995;28;20452;-37
2023/12/05 13:16:18;;;;;;;43.70;39.83;;;;;;;;;;5053896;28;20463;-37
2023/12/05 13:18:47;;;;;;;44.07;39.90;;;;;;;;;;5051672;28;20439;-37
2023/12/05 13:21:15;;;;;;;43.43;39.10;;;;;;;;;;5047245;28;20513;-37
2023/12/05 13:23:45;;;;;;;42.90;38.53;;;;;;;;;;5034676;28;20476;-37
2023/12/05 13:26:13;;;;;;;44.63;40.17;;;;;;;;;;5033730;28;20471;-37
2023/12/05 13:28:40;;;;;;;42.47;38.20;;;;;;;;;;5033547;28;20440;-37
2023/12/05 13:31:08;;;;;;;44.67;39.87;;;;;;;;;;5033036;28;20491;-38
2023/12/05 13:33:37;;;;;;;43.10;38.90;;;;;;;;;;5032929;28;20467;-39
2023/12/05 13:36:06;;;;;;;44.57;40.13;;;;;;;;;;5040450;28;20502;-38
2023/12/05 13:38:34;;;;;;;45.17;40.20;;;;;;;;;;5033475;28;20498;-39
2023/12/05 13:41:02;;;;;;;41.43;37.37;;;;;;;;;;5033134;28;21067;-40
2023/12/05 13:43:29;;;;;;;42.40;37.80;;;;;;;;;;5033284;28;20475;-39
2023/12/05 13:45:57;;;;;;;43.83;39.07;;;;;;;;;;5033460;28;20424;-42
2023/12/05 13:48:24;;;;;;;46.27;41.80;;;;;;;;;;5033193;28;20433;-38
2023/12/05 13:50:54;;;;;;;47.40;41.10;;;;;;;;;;5032119;28;20468;-37
2023/12/05 13:53:23;;;;;;;48.50;41.40;;;;;;;;;;5077525;23;20506;-46
2023/12/05 13:55:50;;;;;;;45.47;39.20;;;;;;;;;;5033948;28;20508;-41
2023/12/05 13:58:18;;;;;;;48.70;43.60;;;;;;;;;;5033168;28;20532;-43
2023/12/05 14:00:45;;;;;;;57.67;42.70;;;;;;;;;;5042206;28;20878;-44
2023/12/05 14:03:13;;;;;;;48.07;42.47;;;;;;;;;;5044411;28;20534;-40
2023/12/05 14:05:41;;;;;;;50.03;42.13;;;;;;;;;;5036360;28;20444;-41
2023/12/05 14:08:11;;;;;;;47.60;42.80;;;;;;;;;;5044820;28;20435;-41
2023/12/05 14:10:38;;;;;;;46.17;41.33;;;;;;;;;;5043221;28;20467;-41
2023/12/05 14:13:06;;;;;;;49.20;42.20;;;;;;;;;;5032535;28;20551;-41
2023/12/05 14:15:34;;;;;;;51.03;43.43;;;;;;;;;;5032448;28;21008;-41
2023/12/05 14:18:02;;;;;;;45.27;40.60;;;;;;;;;;5040754;28;20785;-41
2023/12/05 14:20:30;;;;;;;49.07;44.27;;;;;;;;;;5038249;28;20459;-42
2023/12/05 14:22:58;;;;;;;45.00;40.00;;;;;;;;;;5035637;28;20459;-41